Time;durP1;ratioP1;P1;durP2;ratioP2;P2;SDS_P1;SDS_P2;PMS_P1;PMS_P2;Temp;Humidity;BMP_temperature;BMP_pressure;BME280_temperature;BME280_humidity;BME280_pressure;Samples;Min_cycle;Max_cycle;Signal;HPM_P1;HPM_P2
2023/09/29 00:01:06;;;;;;;10.10;3.50;;;;;;;;;;10425062;28;20033;-79
2023/09/29 00:06:08;;;;;;;17.35;4.20;;;;;;;;;;10439124;28;20029;-78
2023/09/29 00:11:08;;;;;;;12.73;4.43;;;;;;;;;;10440456;28;20512;-78
2023/09/29 00:16:09;;;;;;;18.90;4.63;;;;;;;;;;10415187;28;20040;-81
2023/09/29 00:21:09;;;;;;;6.55;4.25;;;;;;;;;;10419387;28;20110;-79
2023/09/29 00:26:09;;;;;;;13.23;4.88;;;;;;;;;;10427691;28;20017;-79
2023/09/29 00:31:10;;;;;;;34.20;5.15;;;;;;;;;;10423057;28;20036;-81
2023/09/29 00:36:11;;;;;;;17.20;5.50;;;;;;;;;;10436374;28;20021;-81
2023/09/29 00:41:11;;;;;;;9.55;4.25;;;;;;;;;;10411522;28;20022;-78
2023/09/29 00:46:12;;;;;;;10.80;3.90;;;;;;;;;;10439912;28;20021;-80
2023/09/29 00:51:12;;;;;;;5.87;3.87;;;;;;;;;;10420841;28;20028;-80
2023/09/29 00:56:13;;;;;;;10.57;4.32;;;;;;;;;;10435925;28;20272;-80
2023/09/29 01:01:19;;;;;;;14.50;3.50;;;;;;;;;;10439586;28;20025;-81
2023/09/29 01:06:19;;;;;;;10.68;4.63;;;;;;;;;;10440150;28;20079;-74
2023/09/29 01:11:20;;;;;;;12.35;4.47;;;;;;;;;;10413335;28;20042;-74
2023/09/29 01:16:20;;;;;;;29.33;4.47;;;;;;;;;;10427006;28;20148;-76
2023/09/29 01:21:20;;;;;;;13.17;5.37;;;;;;;;;;10399432;28;20021;-78
2023/09/29 01:26:21;;;;;;;12.35;3.95;;;;;;;;;;10413706;28;20112;-82
2023/09/29 01:31:21;;;;;;;13.35;4.50;;;;;;;;;;10418004;28;20020;-78
2023/09/29 01:36:21;;;;;;;12.98;3.80;;;;;;;;;;10410432;28;20071;-78
2023/09/29 01:41:24;;;;;;;8.80;4.20;;;;;;;;;;10417831;28;20409;-83
2023/09/29 01:46:25;;;;;;;12.38;4.88;;;;;;;;;;10413613;28;20056;-81
2023/09/29 01:51:29;;;;;;;13.00;4.60;;;;;;;;;;10383150;28;20094;-79
2023/09/29 01:56:31;;;;;;;6.88;4.57;;;;;;;;;;10405242;28;20031;-80
2023/09/29 02:01:34;;;;;;;17.35;3.88;;;;;;;;;;10436831;28;20426;-83
2023/09/29 02:06:34;;;;;;;16.25;4.32;;;;;;;;;;10403712;28;20028;-81
2023/09/29 02:11:36;;;;;;;12.95;4.72;;;;;;;;;;10430902;28;20048;-82
2023/09/29 02:16:36;;;;;;;20.65;4.45;;;;;;;;;;10430871;28;20112;-79
2023/09/29 02:21:36;;;;;;;13.25;4.38;;;;;;;;;;10413608;28;20484;-81
2023/09/29 02:26:38;;;;;;;15.83;3.77;;;;;;;;;;10421431;28;20466;-77
2023/09/29 02:31:40;;;;;;;12.15;4.43;;;;;;;;;;10431083;28;20017;-81
2023/09/29 02:36:41;;;;;;;17.52;4.85;;;;;;;;;;10431316;28;20013;-75
2023/09/29 02:41:41;;;;;;;17.60;4.57;;;;;;;;;;10431318;28;20037;-78
2023/09/29 02:46:42;;;;;;;12.00;4.93;;;;;;;;;;10435982;28;20432;-80
2023/09/29 02:51:42;;;;;;;18.33;7.00;;;;;;;;;;10420298;28;20468;-76
2023/09/29 02:56:42;;;;;;;17.88;4.63;;;;;;;;;;10419947;28;20170;-77
2023/09/29 03:01:45;;;;;;;13.55;4.68;;;;;;;;;;10426986;28;20185;-76
2023/09/29 03:06:45;;;;;;;16.20;4.75;;;;;;;;;;10426183;28;20030;-75
2023/09/29 03:11:46;;;;;;;18.77;4.78;;;;;;;;;;10424219;28;20447;-77
2023/09/29 03:16:46;;;;;;;9.35;4.45;;;;;;;;;;10433465;28;20043;-74
2023/09/29 03:21:48;;;;;;;15.07;4.35;;;;;;;;;;10454613;22;20041;-79
2023/09/29 03:26:50;;;;;;;7.53;4.47;;;;;;;;;;10471583;28;20412;-80
2023/09/29 03:31:53;;;;;;;14.00;4.20;;;;;;;;;;10461832;28;20021;-80
2023/09/29 03:36:53;;;;;;;11.20;3.90;;;;;;;;;;10459410;28;20035;-78
2023/09/29 03:41:55;;;;;;;13.88;3.97;;;;;;;;;;10460975;28;20044;-78
2023/09/29 03:47:00;;;;;;;12.70;3.70;;;;;;;;;;10452972;28;20465;-79
2023/09/29 03:52:00;;;;;;;9.77;4.03;;;;;;;;;;10446781;28;20075;-75
2023/09/29 03:57:10;;;;;;;15.65;4.43;;;;;;;;;;10443413;28;20619;-74
2023/09/29 04:02:10;;;;;;;9.02;4.65;;;;;;;;;;10472717;28;20117;-79
2023/09/29 04:07:10;;;;;;;15.27;4.47;;;;;;;;;;10456112;28;20027;-81
2023/09/29 04:12:11;;;;;;;10.73;3.42;;;;;;;;;;10459603;28;20090;-79
2023/09/29 04:17:13;;;;;;;17.10;5.03;;;;;;;;;;10438724;28;20032;-80
2023/09/29 04:22:14;;;;;;;8.80;3.72;;;;;;;;;;10448229;28;20068;-74
2023/09/29 04:27:14;;;;;;;21.25;5.63;;;;;;;;;;10452478;28;20111;-82
2023/09/29 04:32:15;;;;;;;16.75;5.00;;;;;;;;;;10432362;28;20509;-77
2023/09/29 04:37:15;;;;;;;19.02;4.40;;;;;;;;;;10443806;28;20550;-84
2023/09/29 04:42:15;;;;;;;13.07;4.43;;;;;;;;;;10453014;28;20079;-83
2023/09/29 04:47:15;;;;;;;14.98;5.38;;;;;;;;;;10464817;28;20081;-78
2023/09/29 04:52:16;;;;;;;23.73;4.50;;;;;;;;;;10461158;28;20025;-80
2023/09/29 04:57:17;;;;;;;12.80;5.35;;;;;;;;;;10448096;28;20107;-79
2023/09/29 05:02:17;;;;;;;19.38;5.75;;;;;;;;;;10453969;28;20029;-80
2023/09/29 05:07:17;;;;;;;26.35;7.22;;;;;;;;;;10449205;28;20516;-83
2023/09/29 05:12:17;;;;;;;20.33;6.38;;;;;;;;;;10439328;28;20605;-76
2023/09/29 05:17:18;;;;;;;17.80;6.38;;;;;;;;;;10453402;28;20528;-80
2023/09/29 05:22:20;;;;;;;27.13;6.88;;;;;;;;;;10432695;28;20416;-79
2023/09/29 05:27:20;;;;;;;24.65;9.20;;;;;;;;;;10449039;28;20017;-83
2023/09/29 05:32:21;;;;;;;21.98;5.80;;;;;;;;;;10441502;28;20670;-76
2023/09/29 05:37:21;;;;;;;39.10;7.73;;;;;;;;;;10458608;28;20400;-76
2023/09/29 05:42:22;;;;;;;19.65;5.95;;;;;;;;;;10460751;28;20233;-80
2023/09/29 05:47:22;;;;;;;13.85;5.63;;;;;;;;;;10428275;28;20488;-79
2023/09/29 05:52:22;;;;;;;22.02;5.93;;;;;;;;;;10439824;28;20365;-81
2023/09/29 05:57:23;;;;;;;23.70;5.65;;;;;;;;;;10455117;28;20032;-77
2023/09/29 06:02:23;;;;;;;20.60;6.25;;;;;;;;;;10435649;28;20021;-79
2023/09/29 06:07:23;;;;;;;20.45;7.72;;;;;;;;;;10468893;28;20020;-75
2023/09/29 06:12:23;;;;;;;26.10;6.75;;;;;;;;;;10435912;28;20492;-76
2023/09/29 06:17:24;;;;;;;28.05;7.28;;;;;;;;;;10466267;28;20036;-81
2023/09/29 06:22:24;;;;;;;18.67;7.15;;;;;;;;;;10444254;28;20055;-80
2023/09/29 06:27:25;;;;;;;22.40;6.60;;;;;;;;;;10442059;28;20017;-76
2023/09/29 06:32:26;;;;;;;20.52;7.00;;;;;;;;;;10421997;28;20029;-81
2023/09/29 06:37:27;;;;;;;14.50;6.10;;;;;;;;;;10433743;28;20024;-79
2023/09/29 06:42:27;;;;;;;33.30;6.90;;;;;;;;;;10450081;28;20021;-74
2023/09/29 06:47:27;;;;;;;17.65;7.07;;;;;;;;;;10453102;28;20484;-82
2023/09/29 06:52:28;;;;;;;27.50;8.38;;;;;;;;;;10454960;28;20476;-80
2023/09/29 06:57:28;;;;;;;21.13;5.95;;;;;;;;;;10463119;28;20025;-80
2023/09/29 07:02:29;;;;;;;24.70;6.05;;;;;;;;;;10474817;28;20441;-80
2023/09/29 07:07:29;;;;;;;14.97;5.40;;;;;;;;;;10473711;28;20009;-79
2023/09/29 07:12:29;;;;;;;23.25;5.20;;;;;;;;;;10457827;28;20036;-83
2023/09/29 07:17:30;;;;;;;23.05;4.70;;;;;;;;;;10431877;28;20070;-76
2023/09/29 07:22:30;;;;;;;18.70;4.10;;;;;;;;;;10428848;28;20516;-77
2023/09/29 07:27:31;;;;;;;20.35;5.32;;;;;;;;;;10442393;28;20020;-79
2023/09/29 07:32:32;;;;;;;18.67;5.03;;;;;;;;;;10471461;28;20031;-80
2023/09/29 07:37:32;;;;;;;13.80;4.67;;;;;;;;;;10487961;28;20484;-74
2023/09/29 07:42:32;;;;;;;18.23;3.97;;;;;;;;;;10449759;28;20276;-75
2023/09/29 07:47:33;;;;;;;13.52;4.22;;;;;;;;;;10448219;28;20036;-75
2023/09/29 07:52:37;;;;;;;18.38;5.15;;;;;;;;;;10469423;28;20043;-80
2023/09/29 07:57:38;;;;;;;13.98;3.70;;;;;;;;;;10470107;28;20455;-75
2023/09/29 08:02:39;;;;;;;14.55;3.83;;;;;;;;;;10487521;28;20025;-74
2023/09/29 08:07:39;;;;;;;10.07;3.53;;;;;;;;;;10454020;28;20105;-78
2023/09/29 08:12:40;;;;;;;12.05;2.42;;;;;;;;;;10427305;28;20024;-81
2023/09/29 08:17:41;;;;;;;20.95;3.08;;;;;;;;;;10480115;28;20023;-80
2023/09/29 08:22:41;;;;;;;10.15;3.17;;;;;;;;;;10467794;28;20078;-82
2023/09/29 08:27:42;;;;;;;6.70;2.20;;;;;;;;;;10441947;28;20123;-81
2023/09/29 08:32:42;;;;;;;7.70;2.35;;;;;;;;;;10468371;28;20021;-80
2023/09/29 08:37:43;;;;;;;13.20;2.75;;;;;;;;;;10486119;28;20508;-80
2023/09/29 08:42:45;;;;;;;13.23;2.50;;;;;;;;;;10443993;28;20373;-76
2023/09/29 08:47:57;;;;;;;11.77;4.90;;;;;;;;;;10445578;28;20021;-80
2023/09/29 08:52:59;;;;;;;8.27;2.10;;;;;;;;;;10456877;28;20028;-77
2023/09/29 08:58:01;;;;;;;12.55;3.70;;;;;;;;;;10427154;28;20091;-79
2023/09/29 09:03:02;;;;;;;10.20;2.55;;;;;;;;;;10425918;28;20033;-76
2023/09/29 09:08:03;;;;;;;10.90;2.80;;;;;;;;;;10443149;28;20469;-78
2023/09/29 09:13:07;;;;;;;7.82;2.20;;;;;;;;;;10453137;28;20024;-81
2023/09/29 09:18:07;;;;;;;19.70;2.85;;;;;;;;;;10466008;28;20575;-83
2023/09/29 09:23:07;;;;;;;10.35;2.70;;;;;;;;;;10463738;28;20059;-83
2023/09/29 09:28:18;;;;;;;15.20;2.70;;;;;;;;;;10425400;28;20025;-74
2023/09/29 09:33:23;;;;;;;6.68;2.65;;;;;;;;;;10483846;28;20028;-75
2023/09/29 09:38:30;;;;;;;14.65;2.78;;;;;;;;;;10484637;28;20085;-81
2023/09/29 09:43:35;;;;;;;13.80;2.78;;;;;;;;;;10479427;28;20223;-83
2023/09/29 09:48:55;;;;;;;7.80;2.92;;;;;;;;;;10459576;28;20020;-81
2023/09/29 09:53:57;;;;;;;12.43;2.58;;;;;;;;;;10464880;28;20035;-78
2023/09/29 09:58:58;;;;;;;15.52;2.80;;;;;;;;;;10464177;28;20267;-79
2023/09/29 10:04:04;;;;;;;12.80;2.63;;;;;;;;;;10464665;28;20028;-78
2023/09/29 10:09:11;;;;;;;12.87;2.37;;;;;;;;;;10481934;28;20028;-81
2023/09/29 10:14:11;;;;;;;11.85;2.50;;;;;;;;;;10464573;28;20267;-84
2023/09/29 10:19:16;;;;;;;16.20;2.83;;;;;;;;;;10423367;28;20037;-74
2023/09/29 10:24:28;;;;;;;14.20;2.92;;;;;;;;;;10454909;28;20059;-79
2023/09/29 10:29:30;;;;;;;8.15;2.65;;;;;;;;;;10445025;28;20429;-80
2023/09/29 10:34:32;;;;;;;10.52;3.15;;;;;;;;;;10443238;28;20539;-78
2023/09/29 10:39:32;;;;;;;10.95;2.75;;;;;;;;;;10463265;28;20024;-79
2023/09/29 10:44:41;;;;;;;9.27;2.67;;;;;;;;;;10442660;28;20385;-80
2023/09/29 10:49:46;;;;;;;8.35;2.53;;;;;;;;;;10439805;28;20111;-81
2023/09/29 10:54:46;;;;;;;14.85;3.78;;;;;;;;;;10432657;28;20114;-75
2023/09/29 10:59:47;;;;;;;11.18;3.03;;;;;;;;;;10453578;28;20443;-80
2023/09/29 11:04:48;;;;;;;10.93;2.72;;;;;;;;;;10435358;28;20024;-80
2023/09/29 11:09:48;;;;;;;12.80;3.30;;;;;;;;;;10463626;28;20029;-80
2023/09/29 11:14:48;;;;;;;5.15;2.50;;;;;;;;;;10454815;28;20021;-79
2023/09/29 11:19:54;;;;;;;17.67;3.15;;;;;;;;;;10448171;28;20024;-75
2023/09/29 11:24:54;;;;;;;10.73;3.63;;;;;;;;;;10443983;28;20390;-79
2023/09/29 11:29:55;;;;;;;12.07;3.38;;;;;;;;;;10436072;28;20215;-81
2023/09/29 11:34:55;;;;;;;14.00;3.83;;;;;;;;;;10463468;28;20024;-79
2023/09/29 11:39:56;;;;;;;10.70;3.23;;;;;;;;;;10462886;28;20115;-79
2023/09/29 11:44:56;;;;;;;8.85;3.13;;;;;;;;;;10456269;28;20445;-79
2023/09/29 11:49:57;;;;;;;12.10;3.75;;;;;;;;;;10449503;28;20024;-75
2023/09/29 11:54:58;;;;;;;19.87;3.60;;;;;;;;;;10470826;28;20037;-76
2023/09/29 11:59:58;;;;;;;10.02;3.65;;;;;;;;;;10465932;28;20610;-79
2023/09/29 12:05:00;;;;;;;13.67;2.93;;;;;;;;;;10447519;28;20170;-80
2023/09/29 12:10:00;;;;;;;9.30;3.05;;;;;;;;;;10469981;28;20539;-81
2023/09/29 12:15:00;;;;;;;9.93;2.97;;;;;;;;;;10446830;28;20025;-85
2023/09/29 12:20:02;;;;;;;10.23;3.87;;;;;;;;;;10452056;28;20052;-84
2023/09/29 12:25:02;;;;;;;13.52;3.20;;;;;;;;;;10454926;28;20414;-82
2023/09/29 12:30:03;;;;;;;12.48;3.35;;;;;;;;;;10427678;28;20027;-83
2023/09/29 12:35:04;;;;;;;8.43;3.55;;;;;;;;;;10427176;28;20025;-80
2023/09/29 12:40:09;;;;;;;7.20;3.35;;;;;;;;;;10427067;28;20523;-77
2023/09/29 12:45:10;;;;;;;7.97;3.00;;;;;;;;;;10472548;28;20082;-75
2023/09/29 12:50:10;;;;;;;8.40;3.00;;;;;;;;;;10467469;28;20105;-79
2023/09/29 12:55:11;;;;;;;13.60;2.50;;;;;;;;;;10468007;28;20035;-78
2023/09/29 13:00:19;;;;;;;10.38;2.65;;;;;;;;;;10467322;28;20044;-82
2023/09/29 13:05:22;;;;;;;6.78;2.00;;;;;;;;;;10467690;28;20047;-79
2023/09/29 13:10:22;;;;;;;6.95;2.63;;;;;;;;;;10470652;28;20138;-77
2023/09/29 13:15:22;;;;;;;7.63;2.72;;;;;;;;;;10425872;28;20165;-79
2023/09/29 13:20:23;;;;;;;9.13;2.80;;;;;;;;;;10456694;28;20052;-84
2023/09/29 13:25:23;;;;;;;10.45;2.28;;;;;;;;;;10447722;28;20121;-77
2023/09/29 13:30:24;;;;;;;9.45;2.65;;;;;;;;;;10458871;28;20438;-78
2023/09/29 13:35:24;;;;;;;15.32;3.38;;;;;;;;;;10465827;28;20020;-75
2023/09/29 13:40:24;;;;;;;9.85;2.67;;;;;;;;;;10472334;28;20066;-79
2023/09/29 13:45:25;;;;;;;12.53;3.17;;;;;;;;;;10428357;28;20020;-80
2023/09/29 13:50:25;;;;;;;7.97;3.50;;;;;;;;;;10431664;28;20259;-77
2023/09/29 13:55:25;;;;;;;15.40;3.13;;;;;;;;;;10452426;28;20020;-80
2023/09/29 14:00:25;;;;;;;8.23;2.80;;;;;;;;;;10429352;28;20139;-81
2023/09/29 14:05:27;;;;;;;14.75;2.92;;;;;;;;;;10439790;28;20093;-80
2023/09/29 14:10:27;;;;;;;12.05;3.17;;;;;;;;;;10439623;28;20013;-81
2023/09/29 14:15:29;;;;;;;5.33;3.00;;;;;;;;;;10424988;28;20378;-78
2023/09/29 14:20:32;;;;;;;18.25;3.38;;;;;;;;;;10403302;28;20045;-80
2023/09/29 14:25:33;;;;;;;10.60;3.40;;;;;;;;;;10458496;28;20159;-78
2023/09/29 14:30:34;;;;;;;17.10;2.97;;;;;;;;;;10463413;28;20020;-77
2023/09/29 14:35:34;;;;;;;10.85;3.33;;;;;;;;;;10430110;28;20083;-76
2023/09/29 14:40:36;;;;;;;13.00;3.70;;;;;;;;;;10422869;28;20512;-75
2023/09/29 14:45:36;;;;;;;10.68;4.70;;;;;;;;;;10473068;28;20013;-75
2023/09/29 14:50:40;;;;;;;11.90;3.90;;;;;;;;;;10424294;28;20025;-76
2023/09/29 14:55:40;;;;;;;11.38;3.42;;;;;;;;;;10457595;28;20012;-79
2023/09/29 15:00:42;;;;;;;14.80;3.13;;;;;;;;;;10421861;28;20047;-80
2023/09/29 15:05:42;;;;;;;6.00;3.20;;;;;;;;;;10422983;28;20502;-79
2023/09/29 15:10:42;;;;;;;5.73;2.93;;;;;;;;;;10445433;28;20024;-80
2023/09/29 15:15:44;;;;;;;12.38;3.75;;;;;;;;;;10439642;28;20411;-79
2023/09/29 15:20:44;;;;;;;8.32;3.63;;;;;;;;;;10441627;28;20049;-79
2023/09/29 15:25:46;;;;;;;5.43;3.13;;;;;;;;;;10429520;28;20078;-81
2023/09/29 15:30:48;;;;;;;11.63;3.47;;;;;;;;;;10452289;28;20017;-78
2023/09/29 15:35:55;;;;;;;23.45;4.35;;;;;;;;;;10466732;28;20044;-81
2023/09/29 15:40:55;;;;;;;10.43;4.28;;;;;;;;;;10430451;28;20094;-79
2023/09/29 15:45:57;;;;;;;18.67;5.23;;;;;;;;;;10455911;28;20079;-80
2023/09/29 15:50:57;;;;;;;10.48;4.57;;;;;;;;;;10441921;28;20032;-75
2023/09/29 15:55:57;;;;;;;22.35;4.70;;;;;;;;;;10469362;28;20399;-75
2023/09/29 16:00:58;;;;;;;15.13;4.97;;;;;;;;;;10487854;28;20107;-75
2023/09/29 16:06:06;;;;;;;13.70;4.30;;;;;;;;;;10469355;28;20019;-81
2023/09/29 16:11:08;;;;;;;19.20;5.32;;;;;;;;;;10487752;28;20082;-79
2023/09/29 16:16:08;;;;;;;20.27;4.25;;;;;;;;;;10469294;28;20020;-76
2023/09/29 16:21:15;;;;;;;15.35;5.28;;;;;;;;;;10468224;28;20466;-74
2023/09/29 16:26:16;;;;;;;9.93;4.85;;;;;;;;;;10447473;28;20397;-75
2023/09/29 16:31:17;;;;;;;12.48;4.80;;;;;;;;;;10426975;28;20021;-75
2023/09/29 16:36:18;;;;;;;17.60;4.97;;;;;;;;;;10438919;28;20016;-75
2023/09/29 16:41:22;;;;;;;16.67;5.70;;;;;;;;;;10487576;28;20013;-82
2023/09/29 16:46:23;;;;;;;18.55;5.05;;;;;;;;;;10467003;28;20017;-75
2023/09/29 16:51:26;;;;;;;14.10;5.40;;;;;;;;;;10468415;28;20427;-76
2023/09/29 16:56:28;;;;;;;9.40;4.97;;;;;;;;;;10463977;28;20518;-77
2023/09/29 17:01:29;;;;;;;12.43;3.75;;;;;;;;;;10409810;28;20526;-77
2023/09/29 17:06:31;;;;;;;19.02;5.40;;;;;;;;;;10430739;28;20025;-78
2023/09/29 17:11:31;;;;;;;13.48;5.45;;;;;;;;;;10445766;28;20504;-74
2023/09/29 17:16:32;;;;;;;19.02;6.35;;;;;;;;;;10466989;28;20020;-79
2023/09/29 17:21:32;;;;;;;15.43;6.80;;;;;;;;;;10485349;28;20106;-75
2023/09/29 17:26:32;;;;;;;30.00;8.87;;;;;;;;;;10485298;28;20048;-81
2023/09/29 17:31:34;;;;;;;22.77;7.88;;;;;;;;;;10449435;28;20346;-78
2023/09/29 17:36:36;;;;;;;41.83;8.55;;;;;;;;;;10484109;28;20028;-77
2023/09/29 17:41:37;;;;;;;19.75;7.65;;;;;;;;;;10484273;28;21763;-76
2023/09/29 17:46:38;;;;;;;22.48;7.53;;;;;;;;;;10426897;28;20115;-80
2023/09/29 17:51:38;;;;;;;14.18;6.15;;;;;;;;;;10424390;28;20027;-78
2023/09/29 17:56:39;;;;;;;14.23;5.65;;;;;;;;;;10424594;28;20017;-76
2023/09/29 18:01:39;;;;;;;18.08;6.05;;;;;;;;;;10442001;28;20496;-79
2023/09/29 18:06:40;;;;;;;25.70;7.07;;;;;;;;;;10466653;28;20590;-77
2023/09/29 18:11:40;;;;;;;32.20;6.93;;;;;;;;;;10453570;28;20484;-79
2023/09/29 18:16:40;;;;;;;16.73;6.22;;;;;;;;;;10448336;28;20115;-80
2023/09/29 18:21:40;;;;;;;12.55;5.95;;;;;;;;;;10455708;28;20072;-79
2023/09/29 18:26:41;;;;;;;15.43;7.18;;;;;;;;;;10423361;28;20149;-76
2023/09/29 18:31:42;;;;;;;22.08;5.72;;;;;;;;;;10422765;28;20049;-75
2023/09/29 18:36:44;;;;;;;19.75;5.68;;;;;;;;;;10448381;28;20036;-75
2023/09/29 18:41:44;;;;;;;11.93;5.18;;;;;;;;;;10453827;28;20021;-80
2023/09/29 18:46:44;;;;;;;14.63;5.25;;;;;;;;;;10448381;28;20451;-78
2023/09/29 18:51:46;;;;;;;15.25;6.60;;;;;;;;;;10425953;28;20031;-79
2023/09/29 18:56:46;;;;;;;7.60;4.63;;;;;;;;;;10466951;28;20037;-81
2023/09/29 19:01:48;;;;;;;12.65;5.63;;;;;;;;;;10446453;28;20093;-79
2023/09/29 19:06:51;;;;;;;18.48;5.15;;;;;;;;;;10425785;28;20491;-77
2023/09/29 19:11:52;;;;;;;16.88;5.88;;;;;;;;;;10425500;28;20080;-79
2023/09/29 19:16:52;;;;;;;24.95;6.05;;;;;;;;;;10445227;28;20174;-80
2023/09/29 19:21:52;;;;;;;14.82;6.40;;;;;;;;;;10423364;28;20090;-77
2023/09/29 19:26:53;;;;;;;16.75;5.13;;;;;;;;;;10443670;28;20051;-83
2023/09/29 19:31:53;;;;;;;11.53;5.50;;;;;;;;;;10432622;28;20021;-76
2023/09/29 19:36:53;;;;;;;19.98;5.35;;;;;;;;;;10447115;28;20085;-80
2023/09/29 19:41:54;;;;;;;16.90;6.65;;;;;;;;;;10450508;28;20032;-82
2023/09/29 19:46:54;;;;;;;12.48;6.13;;;;;;;;;;10429333;28;20029;-80
2023/09/29 19:51:54;;;;;;;17.77;6.00;;;;;;;;;;10432665;28;20028;-81
2023/09/29 19:56:55;;;;;;;19.58;9.10;;;;;;;;;;10437144;28;20025;-81
2023/09/29 20:01:56;;;;;;;20.80;7.30;;;;;;;;;;10410916;28;20101;-84
2023/09/29 20:06:58;;;;;;;23.95;7.50;;;;;;;;;;10431761;28;20013;-82
2023/09/29 20:11:58;;;;;;;21.92;7.07;;;;;;;;;;10405214;28;20052;-78
2023/09/29 20:16:59;;;;;;;14.43;6.30;;;;;;;;;;10422015;28;20578;-79
2023/09/29 20:22:00;;;;;;;29.70;6.93;;;;;;;;;;10425647;28;20303;-83
2023/09/29 20:27:01;;;;;;;17.73;6.53;;;;;;;;;;10420996;28;20045;-82
2023/09/29 20:32:02;;;;;;;16.83;6.97;;;;;;;;;;10421203;28;20152;-81
2023/09/29 20:37:02;;;;;;;16.73;6.90;;;;;;;;;;10428976;28;20512;-79
2023/09/29 20:42:04;;;;;;;15.45;6.80;;;;;;;;;;10416388;28;20032;-80
2023/09/29 20:47:05;;;;;;;23.67;8.38;;;;;;;;;;10446915;22;20061;-74
2023/09/29 20:52:08;;;;;;;18.60;7.33;;;;;;;;;;10467626;28;20382;-73
2023/09/29 20:57:08;;;;;;;22.95;6.47;;;;;;;;;;10466758;28;20028;-73
2023/09/29 21:02:09;;;;;;;18.00;6.68;;;;;;;;;;10471379;28;20507;-73
2023/09/29 21:07:09;;;;;;;17.83;7.93;;;;;;;;;;10464719;28;20020;-74
2023/09/29 21:12:10;;;;;;;13.65;6.88;;;;;;;;;;10459082;28;20289;-75
2023/09/29 21:17:10;;;;;;;15.30;6.32;;;;;;;;;;10464843;28;20100;-73
2023/09/29 21:22:12;;;;;;;17.35;5.65;;;;;;;;;;10471433;28;20205;-75
2023/09/29 21:27:12;;;;;;;10.23;5.63;;;;;;;;;;10460371;28;20020;-78
2023/09/29 21:32:13;;;;;;;19.63;5.82;;;;;;;;;;10461921;28;20318;-77
2023/09/29 21:37:13;;;;;;;11.57;6.18;;;;;;;;;;10459583;28;20012;-79
2023/09/29 21:42:13;;;;;;;13.80;5.80;;;;;;;;;;10460339;28;20322;-76
2023/09/29 21:47:15;;;;;;;21.48;6.55;;;;;;;;;;10461781;28;20053;-80
2023/09/29 21:52:15;;;;;;;13.65;5.95;;;;;;;;;;10455373;28;20029;-76
2023/09/29 21:57:15;;;;;;;11.90;5.65;;;;;;;;;;10442622;28;20074;-76
2023/09/29 22:02:15;;;;;;;10.73;6.10;;;;;;;;;;10455916;28;20051;-77
2023/09/29 22:07:16;;;;;;;17.08;6.07;;;;;;;;;;10456277;28;20212;-77
2023/09/29 22:12:16;;;;;;;15.18;7.65;;;;;;;;;;10459825;28;20067;-76
2023/09/29 22:17:17;;;;;;;17.92;6.03;;;;;;;;;;10460076;28;20021;-77
2023/09/29 22:22:17;;;;;;;20.00;6.35;;;;;;;;;;10460332;28;20021;-77
2023/09/29 22:27:17;;;;;;;15.98;6.13;;;;;;;;;;10455231;28;20096;-76
2023/09/29 22:32:19;;;;;;;18.50;8.13;;;;;;;;;;10458605;28;20316;-70
2023/09/29 22:37:20;;;;;;;18.48;6.97;;;;;;;;;;10451253;28;20250;-71
2023/09/29 22:42:21;;;;;;;18.73;6.50;;;;;;;;;;10440679;28;20052;-71
2023/09/29 22:47:21;;;;;;;15.68;6.03;;;;;;;;;;10448067;28;20051;-71
2023/09/29 22:52:21;;;;;;;16.73;6.60;;;;;;;;;;10450218;28;20032;-71
2023/09/29 22:57:21;;;;;;;15.35;6.70;;;;;;;;;;10445159;28;20406;-72
2023/09/29 23:02:22;;;;;;;16.30;7.00;;;;;;;;;;10424406;28;20373;-71
2023/09/29 23:07:22;;;;;;;18.13;6.40;;;;;;;;;;10425305;28;20146;-71
2023/09/29 23:12:23;;;;;;;13.37;6.90;;;;;;;;;;10446913;28;20090;-72
2023/09/29 23:17:23;;;;;;;15.55;5.93;;;;;;;;;;10432589;28;20025;-71
2023/09/29 23:22:23;;;;;;;17.98;6.40;;;;;;;;;;10445481;28;20013;-71
2023/09/29 23:27:24;;;;;;;16.93;6.30;;;;;;;;;;10417357;28;20045;-72
2023/09/29 23:32:24;;;;;;;13.90;6.72;;;;;;;;;;10434290;28;20255;-71
2023/09/29 23:37:24;;;;;;;10.77;6.22;;;;;;;;;;10441613;28;20013;-71
2023/09/29 23:42:24;;;;;;;27.45;6.80;;;;;;;;;;10445393;28;20067;-71
2023/09/29 23:47:25;;;;;;;16.43;6.40;;;;;;;;;;10451449;28;20072;-71
2023/09/29 23:52:25;;;;;;;15.32;5.07;;;;;;;;;;10457751;28;20302;-71
2023/09/29 23:57:25;;;;;;;24.13;5.87;;;;;;;;;;10454375;28;20017;-72
